createdAt,value
2018-12-19T00:00:10.205Z,17.10
2018-12-19T00:01:10.232Z,16.60
2018-12-19T00:02:10.170Z,16.90
2018-12-19T00:03:10.159Z,17.30
2018-12-19T00:04:10.149Z,17.10
2018-12-19T00:05:10.152Z,17.80
2018-12-19T00:06:10.133Z,18.10
2018-12-19T00:07:10.110Z,18.00
2018-12-19T00:08:10.095Z,17.90
2018-12-19T00:09:10.088Z,18.00
2018-12-19T00:10:10.086Z,17.60
2018-12-19T00:11:10.093Z,18.30
2018-12-19T00:12:10.058Z,18.60
2018-12-19T00:13:10.045Z,19.50
2018-12-19T00:14:10.044Z,18.90
2018-12-19T00:15:10.040Z,19.10
2018-12-19T00:16:10.046Z,18.90
2018-12-19T00:17:10.005Z,19.20
2018-12-19T00:18:09.988Z,18.70
2018-12-19T00:19:10.003Z,18.50
2018-12-19T00:20:09.975Z,18.90
2018-12-19T00:21:09.982Z,18.80
2018-12-19T00:22:09.953Z,18.50
2018-12-19T00:23:09.976Z,18.80
2018-12-19T00:24:09.927Z,18.90
2018-12-19T00:25:09.930Z,18.30
2018-12-19T00:26:09.941Z,18.40
2018-12-19T00:27:09.897Z,19.10
2018-12-19T00:28:09.880Z,18.80
2018-12-19T00:29:09.863Z,18.70
2018-12-19T00:30:09.879Z,18.90
2018-12-19T00:31:09.841Z,18.80
2018-12-19T00:32:09.849Z,19.00
2018-12-19T00:33:09.824Z,19.70
2018-12-19T00:34:09.822Z,19.20
2018-12-19T00:35:09.798Z,18.70
2018-12-19T00:36:09.791Z,19.40
2018-12-19T00:37:09.799Z,20.20
2018-12-19T00:38:09.770Z,20.50
2018-12-19T00:39:09.854Z,19.80
2018-12-19T00:40:09.748Z,20.70
2018-12-19T00:41:09.757Z,20.10
2018-12-19T00:42:09.735Z,19.60
2018-12-19T00:43:09.747Z,20.00
2018-12-19T00:44:09.699Z,20.80
2018-12-19T00:45:09.689Z,19.90
2018-12-19T00:46:09.693Z,20.70
2018-12-19T00:47:09.698Z,20.30
2018-12-19T00:48:09.663Z,20.60
2018-12-19T00:49:09.648Z,20.10
2018-12-19T00:50:09.650Z,20.70
2018-12-19T00:51:09.627Z,19.60
2018-12-19T00:52:09.635Z,19.90
2018-12-19T00:53:09.600Z,20.30
2018-12-19T00:54:09.604Z,19.50
2018-12-19T00:55:09.584Z,20.00
2018-12-19T00:56:09.593Z,20.00
2018-12-19T00:57:09.590Z,19.40
2018-12-19T00:58:09.578Z,18.60
2018-12-19T00:59:09.533Z,19.50
2018-12-19T01:00:09.523Z,18.60
2018-12-19T01:01:09.531Z,19.00
2018-12-19T01:02:09.533Z,18.90
2018-12-19T01:03:09.554Z,18.00
2018-12-19T01:04:09.480Z,19.00
2018-12-19T01:05:09.476Z,18.70
2018-12-19T01:06:09.462Z,18.80
2018-12-19T01:07:09.466Z,18.20
2018-12-19T01:08:09.500Z,17.80
2018-12-19T01:09:15.706Z,18.30
2018-12-19T01:10:10.419Z,18.30
2018-12-19T01:11:09.405Z,18.10
2018-12-19T01:12:09.439Z,18.20
2018-12-19T01:13:09.389Z,18.70
2018-12-19T01:14:09.386Z,18.40
2018-12-19T01:15:09.368Z,18.80
2018-12-19T01:16:09.382Z,17.70
2018-12-19T01:17:09.353Z,18.40
2018-12-19T01:18:09.344Z,18.80
2018-12-19T01:19:09.325Z,19.10
2018-12-19T01:20:09.362Z,19.10
2018-12-19T01:21:09.318Z,19.00
2018-12-19T01:22:09.302Z,18.90
2018-12-19T01:23:09.280Z,17.80
2018-12-19T01:24:09.292Z,19.10
2018-12-19T01:25:09.250Z,18.50
2018-12-19T01:26:09.242Z,18.20
2018-12-19T01:27:09.251Z,18.50
2018-12-19T01:28:09.223Z,18.90
2018-12-19T01:29:09.203Z,18.50
2018-12-19T01:30:09.207Z,19.40
2018-12-19T01:31:09.184Z,19.80
2018-12-19T01:32:09.185Z,19.10
2018-12-19T01:33:09.203Z,19.40
2018-12-19T01:34:09.147Z,19.60
2018-12-19T01:35:09.135Z,19.70
2018-12-19T01:36:09.129Z,20.00
2018-12-19T01:37:09.139Z,19.90
2018-12-19T01:38:09.150Z,20.00
2018-12-19T01:39:09.098Z,20.60
2018-12-19T01:40:09.085Z,20.00
2018-12-19T01:41:09.077Z,20.40
2018-12-19T01:42:09.102Z,21.30
2018-12-19T01:43:09.050Z,21.60
2018-12-19T01:44:09.071Z,20.70
2018-12-19T01:45:09.032Z,20.30
2018-12-19T01:46:09.024Z,20.40
2018-12-19T01:47:09.042Z,19.90
2018-12-19T01:48:09.022Z,20.60
2018-12-19T01:49:08.988Z,20.00
2018-12-19T01:50:08.977Z,19.90
2018-12-19T01:51:08.968Z,19.50
2018-12-19T01:52:08.965Z,20.20
2018-12-19T01:53:09.012Z,19.40
2018-12-19T01:54:08.955Z,19.10
2018-12-19T01:55:08.924Z,19.20
2018-12-19T01:56:08.933Z,19.10
2018-12-19T01:57:08.906Z,19.70
2018-12-19T01:58:08.887Z,20.00
2018-12-19T01:59:08.875Z,19.50
2018-12-19T02:00:08.860Z,20.10
2018-12-19T02:01:08.868Z,21.00
2018-12-19T02:02:08.852Z,20.30
2018-12-19T02:03:08.837Z,20.70
2018-12-19T02:04:08.820Z,21.20
2018-12-19T02:05:08.829Z,20.80
2018-12-19T02:06:08.803Z,21.00
2018-12-19T02:07:08.810Z,21.30
2018-12-19T02:08:08.806Z,21.10
2018-12-19T02:09:08.758Z,20.80
2018-12-19T02:10:08.774Z,20.50
2018-12-19T02:11:08.772Z,20.80
2018-12-19T02:12:08.737Z,20.40
2018-12-19T02:13:08.772Z,20.00
2018-12-19T02:14:08.713Z,20.90
2018-12-19T02:15:08.757Z,20.90
2018-12-19T02:16:08.700Z,21.00
2018-12-19T02:17:08.689Z,20.00
2018-12-19T02:18:08.686Z,20.80
2018-12-19T02:19:08.685Z,20.70
2018-12-19T02:20:08.646Z,21.60
2018-12-19T02:21:08.633Z,21.50
2018-12-19T02:22:08.636Z,21.20
2018-12-19T02:23:08.620Z,21.50
2018-12-19T02:24:08.621Z,21.10
2018-12-19T02:25:08.584Z,20.70
2018-12-19T02:26:08.572Z,20.30
2018-12-19T02:27:08.571Z,21.50
2018-12-19T02:28:08.579Z,21.40
2018-12-19T02:29:08.553Z,21.50
2018-12-19T02:30:08.553Z,21.00
2018-12-19T02:31:08.572Z,21.20
2018-12-19T02:32:08.510Z,21.10
2018-12-19T02:33:08.525Z,20.70
2018-12-19T02:34:08.483Z,21.20
2018-12-19T02:35:08.488Z,21.10
2018-12-19T02:36:08.497Z,20.70
2018-12-19T02:37:08.474Z,20.20
2018-12-19T02:38:08.458Z,20.80
2018-12-19T02:39:08.443Z,20.60
2018-12-19T02:40:08.423Z,20.80
2018-12-19T02:41:08.428Z,20.70
2018-12-19T02:42:08.407Z,20.40
2018-12-19T02:43:08.393Z,21.30
2018-12-19T02:44:08.372Z,20.40
2018-12-19T02:45:08.377Z,19.80
2018-12-19T02:46:08.366Z,20.20
2018-12-19T02:47:08.364Z,19.40
2018-12-19T02:48:08.374Z,20.20
2018-12-19T02:49:08.318Z,19.70
2018-12-19T02:50:08.321Z,19.50
2018-12-19T02:51:08.300Z,19.50
2018-12-19T02:52:08.314Z,18.70
2018-12-19T02:53:08.311Z,19.40
2018-12-19T02:54:08.284Z,18.80
2018-12-19T02:55:08.266Z,18.60
2018-12-19T02:56:08.245Z,19.60
2018-12-19T02:57:08.235Z,19.60
2018-12-19T02:58:08.238Z,18.40
2018-12-19T02:59:08.225Z,18.50
2018-12-19T03:00:08.225Z,17.80
2018-12-19T03:01:08.192Z,19.00
2018-12-19T03:02:08.179Z,19.50
2018-12-19T03:03:08.177Z,19.60
2018-12-19T03:04:08.211Z,18.90
2018-12-19T03:05:08.154Z,19.20
2018-12-19T03:06:08.131Z,20.20
2018-12-19T03:07:08.127Z,20.20
2018-12-19T03:08:08.105Z,20.30
2018-12-19T03:09:08.144Z,19.80
2018-12-19T03:10:08.087Z,21.50
2018-12-19T03:11:08.096Z,21.60
2018-12-19T03:12:08.068Z,21.50
2018-12-19T03:13:08.055Z,21.80
2018-12-19T03:14:08.055Z,22.20
2018-12-19T03:15:08.115Z,22.30
2018-12-19T03:16:08.034Z,22.20
2018-12-19T03:17:08.021Z,22.40
2018-12-19T03:18:08.010Z,22.00
2018-12-19T03:19:08.017Z,21.80
2018-12-19T03:20:07.992Z,22.30
2018-12-19T03:21:07.973Z,22.30
2018-12-19T03:22:07.965Z,22.60
2018-12-19T03:23:07.976Z,22.40
2018-12-19T03:24:07.951Z,23.00
2018-12-19T03:25:07.924Z,22.90
2018-12-19T03:26:07.919Z,22.60
2018-12-19T03:27:07.921Z,22.20
2018-12-19T03:28:07.903Z,22.30
2018-12-19T03:29:07.935Z,23.00
2018-12-19T03:30:07.880Z,21.30
2018-12-19T03:31:07.859Z,21.60
2018-12-19T03:32:07.864Z,22.20
2018-12-19T03:33:07.866Z,21.90
2018-12-19T03:34:07.883Z,22.30
2018-12-19T03:35:07.825Z,21.70
2018-12-19T03:36:07.798Z,20.90
2018-12-19T03:37:07.805Z,20.80
2018-12-19T03:38:07.803Z,20.60
2018-12-19T03:39:07.782Z,20.60
2018-12-19T03:40:07.781Z,21.00
2018-12-19T03:41:07.744Z,20.70
2018-12-19T03:42:07.749Z,19.40
2018-12-19T03:43:07.740Z,18.70
2018-12-19T03:44:07.723Z,19.70
2018-12-19T03:45:07.750Z,18.60
2018-12-19T03:46:07.705Z,19.40
2018-12-19T03:47:07.674Z,19.90
2018-12-19T03:48:07.672Z,18.80
2018-12-19T03:49:07.668Z,18.20
2018-12-19T03:50:07.679Z,18.20
2018-12-19T03:51:07.678Z,19.00
2018-12-19T03:52:07.623Z,18.40
2018-12-19T03:53:07.660Z,18.30
2018-12-19T03:54:07.603Z,18.40
2018-12-19T03:55:07.598Z,18.50
2018-12-19T03:56:07.575Z,19.00
2018-12-19T03:57:07.584Z,18.90
2018-12-19T03:58:07.552Z,18.50
2018-12-19T03:59:07.542Z,18.40
2018-12-19T04:00:07.550Z,18.70
2018-12-19T04:01:07.527Z,18.70
2018-12-19T04:02:07.528Z,18.20
2018-12-19T04:03:07.521Z,18.20
2018-12-19T04:04:07.489Z,18.50
2018-12-19T04:05:07.490Z,18.50
2018-12-19T04:06:07.485Z,17.90
2018-12-19T04:07:07.460Z,18.30
2018-12-19T04:08:07.446Z,18.10
2018-12-19T04:09:07.447Z,17.30
2018-12-19T04:10:07.433Z,18.20
2018-12-19T04:11:07.412Z,17.60
2018-12-19T04:12:07.398Z,18.20
2018-12-19T04:13:07.403Z,18.20
2018-12-19T04:14:07.387Z,17.70
2018-12-19T04:15:07.409Z,17.50
2018-12-19T04:16:07.357Z,17.70
2018-12-19T04:17:07.348Z,17.80
2018-12-19T04:18:07.339Z,17.60
2018-12-19T04:19:07.349Z,17.30
2018-12-19T04:20:07.321Z,18.00
2018-12-19T04:21:07.333Z,17.50
2018-12-19T04:22:07.301Z,17.50
2018-12-19T04:23:07.280Z,18.00
2018-12-19T04:24:07.273Z,17.90
2018-12-19T04:25:07.291Z,18.40
2018-12-19T04:26:07.273Z,18.70
2018-12-19T04:27:07.247Z,18.80
2018-12-19T04:28:07.225Z,18.80
2018-12-19T04:29:07.229Z,19.30
2018-12-19T04:30:07.200Z,19.60
2018-12-19T04:31:07.206Z,19.90
2018-12-19T04:32:07.203Z,19.90
2018-12-19T04:33:07.167Z,20.40
2018-12-19T04:34:07.159Z,19.80
2018-12-19T04:35:07.161Z,20.90
2018-12-19T04:36:07.438Z,20.00
2018-12-19T04:37:07.163Z,20.00
2018-12-19T04:38:07.118Z,19.90
2018-12-19T04:39:07.114Z,20.80
2018-12-19T04:40:07.092Z,20.50
2018-12-19T04:41:07.091Z,21.00
2018-12-19T04:42:07.086Z,20.10
2018-12-19T04:43:07.079Z,21.50
2018-12-19T04:44:07.073Z,21.40
2018-12-19T04:45:07.040Z,20.40
2018-12-19T04:46:07.037Z,21.20
2018-12-19T04:47:07.019Z,20.60
2018-12-19T04:48:07.026Z,21.70
2018-12-19T04:49:07.016Z,21.30
2018-12-19T04:50:07.000Z,21.50
2018-12-19T04:51:06.992Z,21.40
2018-12-19T04:52:06.968Z,21.70
2018-12-19T04:53:06.957Z,22.30
2018-12-19T04:54:06.949Z,22.10
2018-12-19T04:55:06.935Z,22.30
2018-12-19T04:56:06.946Z,22.20
2018-12-19T04:57:06.923Z,23.20
2018-12-19T04:58:06.893Z,21.90
2018-12-19T04:59:06.886Z,23.10
2018-12-19T05:00:06.900Z,23.20
2018-12-19T05:01:06.905Z,21.90
2018-12-19T05:02:06.878Z,21.80
2018-12-19T05:03:06.839Z,22.80
2018-12-19T05:04:06.847Z,23.10
2018-12-19T05:05:06.817Z,23.60
2018-12-19T05:06:06.823Z,23.50
2018-12-19T05:07:06.807Z,23.60
2018-12-19T05:08:06.812Z,24.60
2018-12-19T05:09:06.773Z,24.20
2018-12-19T05:10:12.272Z,23.50
2018-12-19T05:11:07.757Z,24.40
2018-12-19T05:12:06.738Z,25.70
2018-12-19T05:13:06.754Z,25.40
2018-12-19T05:14:06.718Z,27.20
2018-12-19T05:15:06.704Z,26.20
2018-12-19T05:16:06.706Z,27.50
2018-12-19T05:17:06.691Z,27.70
2018-12-19T05:18:06.676Z,25.50
2018-12-19T05:19:06.676Z,27.50
2018-12-19T05:20:06.667Z,28.70
2018-12-19T05:21:06.660Z,27.40
2018-12-19T05:22:06.636Z,27.50
2018-12-19T05:23:06.620Z,28.20
2018-12-19T05:24:06.615Z,28.70
2018-12-19T05:25:06.596Z,27.60
2018-12-19T05:26:06.661Z,27.90
2018-12-19T05:27:06.597Z,29.70
2018-12-19T05:28:06.568Z,28.40
2018-12-19T05:29:07.404Z,28.30
2018-12-19T05:30:06.549Z,27.50
2018-12-19T05:31:06.560Z,26.30
2018-12-19T05:32:06.519Z,26.80
2018-12-19T05:33:06.537Z,26.60
2018-12-19T05:34:06.493Z,27.80
2018-12-19T05:35:06.495Z,26.80
2018-12-19T05:36:06.473Z,26.80
2018-12-19T05:37:06.490Z,25.60
2018-12-19T05:38:06.458Z,26.50
2018-12-19T05:39:06.456Z,26.00
2018-12-19T05:40:06.429Z,26.80
2018-12-19T05:41:06.442Z,26.60
2018-12-19T05:42:06.443Z,28.20
2018-12-19T05:43:06.398Z,26.30
2018-12-19T05:44:06.389Z,25.30
2018-12-19T05:45:06.383Z,26.70
2018-12-19T05:46:06.366Z,26.30
2018-12-19T05:47:06.363Z,25.60
2018-12-19T05:48:06.347Z,26.50
2018-12-19T05:49:06.330Z,26.40
2018-12-19T05:50:06.316Z,26.60
2018-12-19T05:51:06.312Z,25.20
2018-12-19T05:52:06.309Z,25.70
2018-12-19T05:53:06.296Z,24.40
2018-12-19T05:54:06.295Z,26.10
2018-12-19T05:55:06.262Z,25.40
2018-12-19T05:56:06.252Z,25.40
2018-12-19T05:57:06.259Z,26.00
2018-12-19T05:58:06.241Z,25.70
2018-12-19T05:59:06.228Z,25.70
2018-12-19T06:00:06.205Z,24.20
2018-12-19T06:01:06.197Z,23.40
2018-12-19T06:02:06.199Z,24.00
2018-12-19T06:03:06.180Z,24.00
2018-12-19T06:04:06.169Z,22.50
2018-12-19T06:05:06.162Z,23.80
2018-12-19T06:06:06.142Z,24.10
2018-12-19T06:07:06.142Z,24.80
2018-12-19T06:08:06.123Z,24.80
2018-12-19T06:09:06.109Z,24.50
2018-12-19T06:10:06.126Z,25.40
2018-12-19T06:11:06.108Z,24.90
2018-12-19T06:12:06.084Z,25.20
2018-12-19T06:13:06.084Z,25.00
2018-12-19T06:14:06.061Z,23.30
2018-12-19T06:15:06.212Z,25.10
2018-12-19T06:16:06.033Z,23.50
2018-12-19T06:17:06.027Z,23.60
2018-12-19T06:18:06.065Z,24.10
2018-12-19T06:19:05.995Z,23.90
2018-12-19T06:20:05.993Z,24.00
2018-12-19T06:21:05.976Z,25.60
2018-12-19T06:22:05.997Z,25.10
2018-12-19T06:23:05.974Z,24.40
2018-12-19T06:24:05.947Z,25.50
2018-12-19T06:25:05.961Z,24.90
2018-12-19T06:26:05.923Z,25.50
2018-12-19T06:27:05.934Z,25.60
2018-12-19T06:28:05.894Z,27.50
2018-12-19T06:29:05.915Z,26.10
2018-12-19T06:30:05.885Z,26.70
2018-12-19T06:31:05.864Z,25.90
2018-12-19T06:32:05.862Z,26.40
2018-12-19T06:33:05.849Z,26.50
2018-12-19T06:34:05.834Z,28.10
2018-12-19T06:35:05.828Z,26.50
2018-12-19T06:36:05.810Z,26.20
2018-12-19T06:37:05.807Z,27.30
2018-12-19T06:38:05.798Z,26.20
2018-12-19T06:39:05.799Z,26.90
2018-12-19T06:40:05.857Z,29.00
2018-12-19T06:41:05.804Z,27.30
2018-12-19T06:42:05.752Z,26.40
2018-12-19T06:43:05.729Z,28.00
2018-12-19T06:44:05.747Z,28.60
2018-12-19T06:45:05.715Z,27.80
2018-12-19T06:46:05.709Z,26.90
2018-12-19T06:47:05.709Z,26.00
2018-12-19T06:48:05.676Z,27.10
2018-12-19T06:49:05.663Z,27.50
2018-12-19T06:50:05.663Z,28.50
2018-12-19T06:51:05.677Z,28.80
2018-12-19T06:52:05.653Z,29.90
2018-12-19T06:53:05.622Z,28.40
2018-12-19T06:54:05.611Z,26.30
2018-12-19T06:55:05.599Z,27.60
2018-12-19T06:56:05.590Z,27.50
2018-12-19T06:57:05.593Z,30.50
2018-12-19T06:58:05.592Z,27.40
2018-12-19T06:59:05.556Z,26.10
2018-12-19T07:00:05.559Z,27.10
2018-12-19T07:01:05.539Z,26.70
2018-12-19T07:02:05.531Z,27.30
2018-12-19T07:03:05.511Z,27.00
2018-12-19T07:04:05.529Z,28.40
2018-12-19T07:05:05.491Z,27.20
2018-12-19T07:06:05.476Z,26.80
2018-12-19T07:07:05.481Z,27.00
2018-12-19T07:08:05.471Z,29.30
2018-12-19T07:09:05.459Z,27.60
2018-12-19T07:10:05.433Z,28.10
2018-12-19T07:11:05.490Z,26.00
2018-12-19T07:12:05.432Z,27.90
2018-12-19T07:13:05.405Z,26.40
2018-12-19T07:14:05.434Z,27.70
2018-12-19T07:15:05.379Z,26.40
2018-12-19T07:16:05.367Z,26.70
2018-12-19T07:17:05.374Z,28.60
2018-12-19T07:18:05.350Z,27.00
2018-12-19T07:19:05.898Z,26.80
2018-12-19T07:20:05.326Z,26.50
2018-12-19T07:21:05.345Z,24.90
2018-12-19T07:22:05.328Z,24.70
2018-12-19T07:23:05.293Z,25.80
2018-12-19T07:24:05.298Z,27.00
2018-12-19T07:25:05.319Z,25.50
2018-12-19T07:26:05.269Z,26.20
2018-12-19T07:27:05.251Z,24.80
2018-12-19T07:28:05.233Z,26.80
2018-12-19T07:29:05.231Z,25.40
2018-12-19T07:30:05.213Z,25.00
2018-12-19T07:31:05.233Z,23.90
2018-12-19T07:32:05.442Z,26.60
2018-12-19T07:33:05.176Z,26.30
2018-12-19T07:34:05.182Z,25.30
2018-12-19T07:35:05.162Z,24.70
2018-12-19T07:36:05.170Z,26.10
2018-12-19T07:37:05.142Z,25.40
2018-12-19T07:38:05.128Z,26.50
2018-12-19T07:39:05.130Z,24.00
2018-12-19T07:40:05.120Z,25.40
2018-12-19T07:41:05.131Z,25.00
2018-12-19T07:42:05.129Z,27.00
2018-12-19T07:43:05.090Z,23.80
2018-12-19T07:44:05.057Z,25.20
2018-12-19T07:45:05.043Z,24.30
2018-12-19T07:46:05.043Z,23.20
2018-12-19T07:47:05.431Z,24.30
2018-12-19T07:48:05.037Z,24.80
2018-12-19T07:49:05.013Z,24.50
2018-12-19T07:50:05.004Z,23.90
2018-12-19T07:51:04.988Z,23.40
2018-12-19T07:52:04.969Z,21.40
2018-12-19T07:53:05.011Z,24.20
2018-12-19T07:54:04.974Z,23.10
2018-12-19T07:55:04.937Z,21.90
2018-12-19T07:56:04.932Z,22.60
2018-12-19T07:57:04.915Z,22.90
2018-12-19T07:58:04.925Z,21.50
2018-12-19T07:59:04.888Z,23.30
2018-12-19T08:00:04.898Z,21.70
2018-12-19T08:01:04.867Z,22.30
2018-12-19T08:02:04.858Z,21.20
2018-12-19T08:03:04.855Z,22.10
2018-12-19T08:04:04.833Z,21.70
2018-12-19T08:05:04.827Z,21.40
2018-12-19T08:06:04.828Z,21.60
2018-12-19T08:07:04.801Z,20.70
2018-12-19T08:08:04.799Z,21.40
2018-12-19T08:09:04.817Z,20.80
2018-12-19T08:10:04.777Z,20.30
2018-12-19T08:11:04.766Z,20.80
2018-12-19T08:12:04.792Z,20.80
2018-12-19T08:13:04.748Z,19.80
2018-12-19T08:14:04.727Z,20.70
2018-12-19T08:15:04.723Z,20.00
2018-12-19T08:16:04.721Z,20.20
2018-12-19T08:17:04.693Z,20.50
2018-12-19T08:18:05.682Z,20.10
2018-12-19T08:19:04.674Z,19.80
2018-12-19T08:20:04.659Z,19.50
2018-12-19T08:21:04.681Z,19.90
2018-12-19T08:22:04.661Z,20.20
2018-12-19T08:23:04.671Z,19.40
2018-12-19T08:24:04.664Z,19.60
2018-12-19T08:25:04.606Z,18.30
2018-12-19T08:26:04.590Z,17.90
2018-12-19T08:27:04.580Z,18.30
2018-12-19T08:28:04.580Z,18.20
2018-12-19T08:29:04.560Z,18.20
2018-12-19T08:30:04.592Z,17.40
2018-12-19T08:31:04.558Z,18.00
2018-12-19T08:32:04.534Z,18.50
2018-12-19T08:33:04.533Z,18.50
2018-12-19T08:34:04.519Z,18.10
2018-12-19T08:35:04.523Z,17.30
2018-12-19T08:36:04.500Z,17.80
2018-12-19T08:37:04.469Z,18.20
2018-12-19T08:38:04.475Z,18.10
2018-12-19T08:39:04.466Z,19.00
2018-12-19T08:40:04.464Z,18.40
2018-12-19T08:41:04.437Z,17.90
2018-12-19T08:42:04.418Z,18.50
2018-12-19T08:43:04.422Z,19.60
2018-12-19T08:44:04.418Z,17.70
2018-12-19T08:45:04.400Z,18.70
2018-12-19T08:46:04.391Z,18.40
2018-12-19T08:47:04.394Z,18.10
2018-12-19T08:48:04.381Z,18.10
2018-12-19T08:49:04.341Z,18.20
2018-12-19T08:50:05.034Z,18.20
2018-12-19T08:51:04.328Z,18.70
2018-12-19T08:52:04.331Z,18.60
2018-12-19T08:53:04.312Z,18.60
2018-12-19T08:54:04.283Z,18.20
2018-12-19T08:55:04.270Z,18.30
2018-12-19T08:56:04.328Z,19.00
2018-12-19T08:57:04.264Z,19.00
2018-12-19T08:58:04.278Z,18.60
2018-12-19T08:59:04.228Z,18.40
2018-12-19T09:00:04.263Z,19.30
2018-12-19T09:01:04.215Z,18.80
2018-12-19T09:02:04.195Z,18.10
2018-12-19T09:03:04.201Z,19.00
2018-12-19T09:04:04.209Z,18.00
2018-12-19T09:05:04.162Z,17.50
2018-12-19T09:06:04.150Z,17.90
2018-12-19T09:07:04.140Z,18.50
2018-12-19T09:08:04.451Z,17.70
2018-12-19T09:09:04.116Z,17.90
2018-12-19T09:10:04.192Z,18.40
2018-12-19T09:11:05.862Z,17.80
2018-12-19T09:12:04.134Z,17.20
2018-12-19T09:13:04.081Z,17.50
2018-12-19T09:14:04.080Z,18.30
2018-12-19T09:15:04.062Z,17.90
2018-12-19T09:16:04.066Z,18.00
2018-12-19T09:17:04.037Z,17.30
2018-12-19T09:18:04.039Z,17.90
2018-12-19T09:19:04.007Z,17.80
2018-12-19T09:20:04.006Z,18.50
2018-12-19T09:21:03.990Z,18.30
2018-12-19T09:22:03.990Z,18.40
2018-12-19T09:23:03.994Z,18.30
2018-12-19T09:24:03.963Z,18.20
2018-12-19T09:25:03.937Z,18.60
2018-12-19T09:26:03.980Z,18.60
2018-12-19T09:27:03.956Z,18.30
2018-12-19T09:28:03.928Z,18.70
2018-12-19T09:29:03.934Z,17.70
2018-12-19T09:30:03.897Z,17.80
2018-12-19T09:31:03.876Z,17.40
2018-12-19T09:32:03.869Z,17.10
2018-12-19T09:33:03.870Z,17.00
2018-12-19T09:34:03.869Z,16.90
2018-12-19T09:35:03.871Z,17.00
2018-12-19T09:36:03.822Z,17.20
2018-12-19T09:37:03.814Z,18.10
2018-12-19T09:38:03.810Z,17.20
2018-12-19T09:39:03.805Z,17.20
2018-12-19T09:40:03.831Z,17.50
2018-12-19T09:41:03.783Z,17.30
2018-12-19T09:42:03.775Z,17.00
2018-12-19T09:43:03.752Z,17.20
2018-12-19T09:44:03.787Z,16.70
2018-12-19T09:45:03.746Z,17.20
2018-12-19T09:46:03.709Z,17.30
2018-12-19T09:47:03.710Z,17.40
2018-12-19T09:48:03.690Z,16.20
2018-12-19T09:49:03.695Z,16.20
2018-12-19T09:50:03.669Z,16.20
2018-12-19T09:51:03.673Z,17.00
2018-12-19T09:52:03.647Z,16.00
2018-12-19T09:53:03.654Z,15.70
2018-12-19T09:54:03.715Z,16.30
2018-12-19T09:55:03.607Z,16.20
2018-12-19T09:56:03.625Z,16.00
2018-12-19T09:57:03.630Z,16.10
2018-12-19T09:58:03.575Z,16.40
2018-12-19T09:59:03.611Z,16.50
2018-12-19T10:00:03.566Z,16.30
2018-12-19T10:01:05.466Z,15.60
2018-12-19T10:02:03.548Z,16.80
2018-12-19T10:03:03.545Z,15.80
2018-12-19T10:04:03.520Z,15.80
2018-12-19T10:05:03.497Z,15.90
2018-12-19T10:06:03.498Z,16.50
2018-12-19T10:07:03.497Z,16.10
2018-12-19T10:08:03.481Z,16.50
2018-12-19T10:09:03.487Z,16.70
2018-12-19T10:10:03.494Z,16.20
2018-12-19T10:11:03.434Z,17.10
2018-12-19T10:12:03.428Z,16.20
2018-12-19T10:13:03.431Z,16.70
2018-12-19T10:14:03.453Z,16.10
2018-12-19T10:15:03.395Z,15.80
2018-12-19T10:16:04.228Z,16.20
2018-12-19T10:17:03.366Z,15.80
2018-12-19T10:18:03.361Z,15.80
2018-12-19T10:19:03.364Z,16.30
2018-12-19T10:20:03.381Z,15.80
2018-12-19T10:21:03.337Z,15.40
2018-12-19T10:22:03.324Z,15.00
2018-12-19T10:23:03.311Z,15.20
2018-12-19T10:24:03.328Z,15.90
2018-12-19T10:25:03.311Z,15.40
2018-12-19T10:26:03.286Z,15.70
2018-12-19T10:27:03.272Z,15.50
2018-12-19T10:28:03.253Z,15.40
2018-12-19T10:29:03.300Z,15.20
2018-12-19T10:30:03.230Z,15.10
2018-12-19T10:31:03.243Z,16.70
2018-12-19T10:32:03.215Z,15.60
2018-12-19T10:33:03.211Z,16.10
2018-12-19T10:34:03.242Z,15.60
2018-12-19T10:35:03.170Z,16.30
2018-12-19T10:36:03.171Z,15.70
2018-12-19T10:37:03.168Z,15.90
2018-12-19T10:38:03.206Z,16.90
2018-12-19T10:39:03.152Z,15.40
2018-12-19T10:40:03.121Z,15.70
2018-12-19T10:41:03.108Z,15.40
2018-12-19T10:42:03.143Z,16.50
2018-12-19T10:43:03.130Z,15.40
2018-12-19T10:44:03.098Z,15.70
2018-12-19T10:45:03.086Z,15.70
2018-12-19T10:46:03.081Z,15.60
2018-12-19T10:47:03.039Z,15.60
2018-12-19T10:48:03.045Z,15.40
2018-12-19T10:49:03.043Z,15.40
2018-12-19T10:50:03.016Z,15.10
2018-12-19T10:51:03.021Z,15.20
2018-12-19T10:52:02.986Z,14.80
2018-12-19T10:53:02.985Z,15.50
2018-12-19T10:54:02.976Z,15.50
2018-12-19T10:55:02.966Z,14.80
2018-12-19T10:56:02.980Z,15.00
2018-12-19T10:57:02.961Z,15.90
2018-12-19T10:58:02.926Z,15.40
2018-12-19T10:59:02.973Z,15.20
2018-12-19T11:00:03.894Z,15.70
2018-12-19T11:01:02.919Z,15.70
2018-12-19T11:02:02.880Z,15.10
2018-12-19T11:03:02.886Z,15.80
2018-12-19T11:04:02.855Z,16.30
2018-12-19T11:05:02.867Z,15.60
2018-12-19T11:06:02.836Z,15.60
2018-12-19T11:07:02.837Z,16.10
2018-12-19T11:08:02.821Z,16.40
2018-12-19T11:09:02.821Z,16.80
2018-12-19T11:10:02.907Z,17.60
2018-12-19T11:11:02.784Z,16.60
2018-12-19T11:12:02.787Z,16.30
2018-12-19T11:13:02.779Z,16.60
2018-12-19T11:14:02.756Z,15.70
2018-12-19T11:15:02.759Z,16.80
2018-12-19T11:16:02.723Z,16.30
2018-12-19T11:17:02.746Z,16.70
2018-12-19T11:18:02.737Z,16.90
2018-12-19T11:19:02.718Z,16.40
2018-12-19T11:20:02.697Z,16.10
2018-12-19T11:21:02.690Z,16.50
2018-12-19T11:22:02.662Z,16.40
2018-12-19T11:23:02.658Z,16.10
2018-12-19T11:24:02.651Z,15.60
2018-12-19T11:25:02.653Z,15.10
2018-12-19T11:26:02.629Z,15.70
2018-12-19T11:27:02.619Z,15.10
2018-12-19T11:28:02.596Z,15.60
2018-12-19T11:29:02.913Z,16.10
2018-12-19T11:30:02.592Z,15.10
2018-12-19T11:31:02.563Z,14.90
2018-12-19T11:32:02.561Z,15.30
2018-12-19T11:33:02.609Z,14.50
2018-12-19T11:34:02.526Z,14.30
2018-12-19T11:35:02.521Z,14.60
2018-12-19T11:36:02.538Z,14.50
2018-12-19T11:37:02.500Z,14.70
2018-12-19T11:38:02.497Z,14.00
2018-12-19T11:39:02.473Z,14.10
2018-12-19T11:40:02.464Z,14.10
2018-12-19T11:41:02.479Z,14.90
2018-12-19T11:42:02.461Z,14.70
2018-12-19T11:43:02.430Z,13.60
2018-12-19T11:44:02.419Z,13.80
2018-12-19T11:45:02.402Z,13.10
2018-12-19T11:46:02.412Z,13.60
2018-12-19T11:47:02.394Z,13.20
2018-12-19T11:48:02.376Z,14.00
2018-12-19T11:49:02.361Z,13.50
2018-12-19T11:50:02.356Z,12.20
2018-12-19T11:51:02.352Z,12.60
2018-12-19T11:52:02.373Z,13.20
2018-12-19T11:53:02.334Z,13.20
2018-12-19T11:54:02.302Z,12.40
2018-12-19T11:55:02.308Z,12.50
2018-12-19T11:56:02.298Z,13.30
2018-12-19T11:57:02.267Z,12.10
2018-12-19T11:58:02.268Z,12.20
2018-12-19T11:59:02.295Z,11.70
2018-12-19T12:00:02.247Z,12.10
2018-12-19T12:01:02.236Z,11.80
2018-12-19T12:02:02.226Z,11.90
2018-12-19T12:03:02.210Z,11.90
2018-12-19T12:04:02.255Z,12.10
2018-12-19T12:05:02.192Z,12.10
2018-12-19T12:06:02.181Z,11.80
2018-12-19T12:07:02.166Z,12.20
2018-12-19T12:08:02.148Z,12.80
2018-12-19T12:09:02.140Z,12.90
2018-12-19T12:10:02.138Z,13.00
2018-12-19T12:11:02.144Z,12.40
2018-12-19T12:12:02.115Z,12.10
2018-12-19T12:13:02.107Z,12.40
2018-12-19T12:14:02.078Z,12.50
2018-12-19T12:15:02.085Z,12.60
2018-12-19T12:16:02.089Z,13.00
2018-12-19T12:17:02.050Z,12.90
2018-12-19T12:18:02.044Z,12.50
2018-12-19T12:19:02.027Z,12.30
2018-12-19T12:20:02.017Z,12.10
2018-12-19T12:21:02.030Z,12.60
2018-12-19T12:22:02.021Z,12.40
2018-12-19T12:23:02.007Z,12.60
2018-12-19T12:24:01.988Z,12.50
2018-12-19T12:25:01.961Z,12.50
2018-12-19T12:26:01.948Z,12.70
2018-12-19T12:27:01.948Z,13.40
2018-12-19T12:28:01.943Z,12.40
2018-12-19T12:29:01.919Z,12.60
2018-12-19T12:30:01.918Z,12.60
2018-12-19T12:31:01.897Z,12.30
2018-12-19T12:32:01.928Z,13.00
2018-12-19T12:33:01.880Z,12.50
2018-12-19T12:34:01.877Z,12.30
2018-12-19T12:35:01.848Z,12.80
2018-12-19T12:36:01.842Z,13.20
2018-12-19T12:37:01.846Z,12.90
2018-12-19T12:38:01.820Z,12.70
2018-12-19T12:39:01.809Z,12.90
2018-12-19T12:40:01.791Z,12.80
2018-12-19T12:41:01.780Z,12.60
2018-12-19T12:42:01.788Z,12.90
2018-12-19T12:43:01.773Z,13.60
2018-12-19T12:44:01.808Z,13.10
2018-12-19T12:45:01.747Z,13.50
2018-12-19T12:46:01.726Z,13.00
2018-12-19T12:47:01.843Z,12.70
2018-12-19T12:48:01.703Z,12.80
2018-12-19T12:49:01.725Z,13.50
2018-12-19T12:50:01.684Z,12.40
2018-12-19T12:51:01.682Z,12.60
2018-12-19T12:52:01.669Z,12.40